Time;durP1;ratioP1;P1;durP2;ratioP2;P2;SDS_P1;SDS_P2;PMS_P1;PMS_P2;Temp;Humidity;BMP_temperature;BMP_pressure;BME280_temperature;BME280_humidity;BME280_pressure;Samples;Min_cycle;Max_cycle;Signal;HPM_P1;HPM_P2
2023/09/30 00:00:16;;;;;;;30.75;6.15;;;;;;;;;;4999506;28;20045;-85
2023/09/30 00:02:41;;;;;;;23.65;5.40;;;9.70;99.90;;;;;;4984996;28;20052;-86
2023/09/30 00:05:08;;;;;;;30.05;5.20;;;;;;;;;;4999659;28;20041;-87
2023/09/30 00:07:37;;;;;;;25.20;5.63;;;9.70;99.90;;;;;;4985891;28;20041;-85
2023/09/30 00:10:03;;;;;;;28.83;6.55;;;10.10;99.90;;;;;;4985500;28;20102;-85
2023/09/30 00:12:29;;;;;;;28.08;6.40;;;9.70;99.90;;;;;;4984585;28;20041;-85
2023/09/30 00:14:54;;;;;;;32.72;6.13;;;9.60;99.90;;;;;;4985491;28;20048;-85
2023/09/30 00:17:20;;;;;;;30.27;5.35;;;9.70;99.90;;;;;;4985646;28;20052;-86
2023/09/30 00:19:46;;;;;;;33.58;6.43;;;9.70;99.90;;;;;;4983062;28;20042;-85
2023/09/30 00:22:12;;;;;;;30.33;6.30;;;;;;;;;;4984919;28;20391;-84
2023/09/30 00:24:38;;;;;;;37.67;5.75;;;;;;;;;;4987637;28;20041;-85
2023/09/30 00:27:05;;;;;;;37.97;7.35;;;;;;;;;;5004894;28;20041;-85
2023/09/30 00:29:31;;;;;;;31.85;7.10;;;;;;;;;;4984374;28;20054;-85
2023/09/30 00:31:58;;;;;;;26.48;5.15;;;;;;;;;;4972489;28;20061;-86
2023/09/30 00:34:24;;;;;;;25.60;5.03;;;;;;;;;;4986113;28;20071;-85
2023/09/30 00:36:50;;;;;;;21.50;6.05;;;;;;;;;;4987110;28;20060;-86
2023/09/30 00:39:17;;;;;;;29.65;5.57;;;;;;;;;;5003450;28;20041;-84
2023/09/30 00:41:43;;;;;;;31.38;6.22;;;;;;;;;;4986854;28;20063;-85
2023/09/30 00:44:09;;;;;;;27.27;5.43;;;;;;;;;;4986777;28;20132;-86
2023/09/30 00:46:41;;;;;;;27.27;5.15;;;9.70;99.90;;;;;;5003722;28;20049;-85
2023/09/30 00:49:07;;;;;;;37.40;7.05;;;;;;;;;;5002542;28;20049;-86
2023/09/30 00:51:34;;;;;;;28.73;6.55;;;;;;;;;;4984631;28;20053;-85
2023/09/30 00:54:03;;;;;;;25.45;5.88;;;9.70;99.90;;;;;;5001839;28;20037;-85
2023/09/30 00:56:30;;;;;;;30.80;5.95;;;9.60;99.90;;;;;;4982283;28;20086;-85
2023/09/30 00:58:56;;;;;;;26.50;5.50;;;;;;;;;;4982331;28;20046;-86
2023/09/30 01:01:23;;;;;;;38.22;7.28;;;9.70;99.90;;;;;;4984926;28;20045;-86
2023/09/30 01:03:51;;;;;;;31.25;6.15;;;;;;;;;;4982432;28;20041;-87
2023/09/30 01:06:18;;;;;;;26.10;5.95;;;;;;;;;;4987089;28;20083;-87
2023/09/30 01:08:44;;;;;;;21.73;5.47;;;;;;;;;;4986340;28;20044;-86
2023/09/30 01:11:10;;;;;;;26.13;6.25;;;9.50;99.90;;;;;;4985518;28;20041;-85
2023/09/30 01:13:37;;;;;;;32.35;5.90;;;9.70;99.90;;;;;;4998895;28;20124;-86
2023/09/30 01:16:11;;;;;;;26.58;6.15;;;9.80;99.90;;;;;;4986479;28;20144;-86
2023/09/30 01:18:42;;;;;;;27.35;6.85;;;9.80;99.90;;;;;;4985980;28;20069;-87
2023/09/30 01:21:11;;;;;;;25.38;5.78;;;9.80;99.90;;;;;;4982089;28;20046;-85
2023/09/30 01:23:38;;;;;;;29.88;6.82;;;;;;;;;;4981854;28;20457;-85
2023/09/30 01:26:12;;;;;;;30.20;6.63;;;9.60;99.90;;;;;;4984910;28;20128;-85
2023/09/30 01:28:38;;;;;;;34.95;7.93;;;9.80;99.90;;;;;;4982602;28;20053;-84
2023/09/30 01:31:05;;;;;;;28.85;6.32;;;;;;;;;;4982285;28;20073;-84
2023/09/30 01:33:31;;;;;;;32.45;7.00;;;;;;;;;;4985852;28;20047;-86
2023/09/30 01:35:57;;;;;;;34.17;7.10;;;;;;;;;;4982858;28;20065;-85
2023/09/30 01:38:23;;;;;;;30.30;6.63;;;9.60;99.90;;;;;;4966232;28;20046;-86
2023/09/30 01:40:49;;;;;;;38.17;8.55;;;;;;;;;;4967103;28;20044;-85
2023/09/30 02:40:49;;;;;;;38.83;10.15;;;10.00;99.90;;;;;;5096864;27;1277246;-73
2023/09/30 02:43:16;;;;;;;40.88;11.10;;;10.10;99.90;;;;;;5108174;27;20046;-73
2023/09/30 02:45:42;;;;;;;40.60;11.48;;;10.30;99.90;;;;;;5109166;27;20053;-73
2023/09/30 02:48:08;;;;;;;50.25;11.77;;;9.90;99.90;;;;;;5098075;27;20043;-74
2023/09/30 02:50:34;;;;;;;37.17;9.10;;;9.90;99.90;;;;;;5112908;27;20034;-73
2023/09/30 02:52:59;;;;;;;35.35;9.20;;;10.00;99.90;;;;;;5104858;27;20415;-73
2023/09/30 02:55:25;;;;;;;33.90;9.70;;;10.00;99.90;;;;;;5107502;27;20521;-73
2023/09/30 02:57:51;;;;;;;49.28;10.77;;;10.00;99.90;;;;;;5101091;27;20536;-73
2023/09/30 03:02:54;;;;;;;28.90;8.32;;;10.10;99.90;;;;;;5107380;28;20229;-73
2023/09/30 03:05:20;;;;;;;31.02;9.80;;;10.20;99.90;;;;;;5110785;27;20050;-74
2023/09/30 03:07:47;;;;;;;35.15;9.80;;;10.30;99.90;;;;;;5112176;28;20573;-74
2023/09/30 03:10:19;;;;;;;38.92;9.75;;;10.30;99.90;;;;;;5113960;27;20168;-73
2023/09/30 03:12:47;;;;;;;35.60;11.30;;;10.50;99.90;;;;;;5116864;27;20521;-73
2023/09/30 03:15:14;;;;;;;38.05;9.38;;;10.30;99.90;;;;;;5087974;28;20049;-73
2023/09/30 03:17:41;;;;;;;33.25;9.52;;;10.30;99.90;;;;;;5103508;28;20039;-73
2023/09/30 03:20:11;;;;;;;38.80;10.77;;;10.50;99.90;;;;;;5110292;28;20048;-73
2023/09/30 03:22:40;;;;;;;40.83;10.82;;;10.40;99.90;;;;;;5095553;28;20685;-74
2023/09/30 03:25:08;;;;;;;46.13;11.75;;;10.50;99.90;;;;;;5109896;27;20097;-74
2023/09/30 03:27:34;;;;;;;43.92;10.90;;;9.40;99.90;;;;;;5108599;27;20146;-74
2023/09/30 03:30:01;;;;;;;46.83;11.63;;;10.50;99.90;;;;;;5087703;27;20488;-73
2023/09/30 03:32:27;;;;;;;43.30;10.75;;;11.60;99.90;;;;;;5107836;27;20679;-73
2023/09/30 03:34:53;;;;;;;35.60;10.60;;;10.50;99.90;;;;;;5113735;27;20417;-75
2023/09/30 03:37:19;;;;;;;40.83;11.07;;;10.50;99.90;;;;;;5110497;27;20080;-74
2023/09/30 03:39:49;;;;;;;36.33;9.50;;;10.50;99.90;;;;;;5107172;27;20056;-73
2023/09/30 03:42:15;;;;;;;36.72;10.48;;;10.70;99.90;;;;;;5095145;28;20056;-73
2023/09/30 03:44:41;;;;;;;45.75;10.65;;;10.60;99.90;;;;;;5095003;27;20104;-73
2023/09/30 03:47:08;;;;;;;44.30;11.65;;;10.50;99.90;;;;;;5090566;27;20071;-74
2023/09/30 03:49:33;;;;;;;28.65;9.15;;;10.50;99.90;;;;;;5091595;27;20039;-73
2023/09/30 03:52:00;;;;;;;33.85;11.02;;;;;;;;;;5097523;28;20394;-73
2023/09/30 03:54:26;;;;;;;32.45;10.27;;;10.40;99.90;;;;;;5078475;27;20054;-73
2023/09/30 03:56:52;;;;;;;48.90;10.93;;;10.40;99.90;;;;;;5090794;27;20392;-73
2023/09/30 03:59:18;;;;;;;39.70;10.88;;;10.40;99.90;;;;;;5101738;27;20043;-73
2023/09/30 04:01:44;;;;;;;36.50;10.63;;;10.60;99.90;;;;;;5076022;27;21004;-73
2023/09/30 04:04:10;;;;;;;30.50;9.60;;;10.50;99.90;;;;;;5089568;27;20042;-74
2023/09/30 04:06:39;;;;;;;41.10;10.60;;;10.60;99.90;;;;;;5087592;27;20070;-73
2023/09/30 04:09:10;;;;;;;39.70;11.02;;;10.70;99.90;;;;;;5086064;27;20054;-73
2023/09/30 04:11:36;;;;;;;43.22;10.60;;;10.70;99.90;;;;;;5098010;27;20086;-74
2023/09/30 04:14:04;;;;;;;41.55;10.88;;;10.70;99.90;;;;;;5088217;27;20054;-73
2023/09/30 04:16:30;;;;;;;42.72;10.68;;;10.70;99.90;;;;;;5090467;27;20135;-73
2023/09/30 04:18:56;;;;;;;52.17;11.57;;;10.60;99.90;;;;;;5091266;27;20126;-73
2023/09/30 04:21:21;;;;;;;43.53;10.18;;;10.60;99.90;;;;;;5095119;27;20050;-74
2023/09/30 04:23:47;;;;;;;36.33;10.52;;;10.50;99.90;;;;;;5092798;27;20566;-73
2023/09/30 04:26:15;;;;;;;37.53;10.88;;;10.40;99.90;;;;;;5092878;27;20126;-73
2023/09/30 04:28:40;;;;;;;44.38;10.98;;;10.40;99.90;;;;;;5083279;27;20066;-73
2023/09/30 04:31:07;;;;;;;49.50;10.65;;;10.40;99.90;;;;;;5091326;28;20079;-74
2023/09/30 04:33:35;;;;;;;34.88;8.75;;;10.30;99.90;;;;;;5077130;27;20061;-74
2023/09/30 04:36:02;;;;;;;31.30;8.65;;;11.00;99.90;;;;;;5093435;28;20066;-74
2023/09/30 04:38:27;;;;;;;36.72;9.07;;;10.20;99.90;;;;;;5099065;27;20039;-73
2023/09/30 04:40:54;;;;;;;35.95;9.85;;;10.20;99.90;;;;;;5091912;28;20054;-73
2023/09/30 04:43:20;;;;;;;41.30;9.45;;;10.20;99.90;;;;;;5096042;27;20047;-74
2023/09/30 04:45:47;;;;;;;40.53;10.48;;;10.10;99.90;;;;;;5090998;28;20036;-74
2023/09/30 04:48:13;;;;;;;31.23;8.65;;;10.20;99.90;;;;;;5092731;27;20028;-73
2023/09/30 04:50:41;;;;;;;34.25;9.98;;;10.10;99.90;;;;;;5098778;27;20338;-74
2023/09/30 04:53:08;;;;;;;45.55;10.23;;;10.10;99.90;;;;;;5092883;27;20039;-74
2023/09/30 04:55:34;;;;;;;47.28;10.75;;;10.10;99.90;;;;;;5099596;27;20092;-74
2023/09/30 04:58:00;;;;;;;40.05;10.55;;;11.30;99.90;;;;;;5098920;27;20047;-74
2023/09/30 05:00:25;;;;;;;32.47;9.93;;;10.00;99.90;;;;;;5088130;28;20094;-74
2023/09/30 05:02:55;;;;;;;35.80;11.02;;;10.10;99.90;;;;;;5096375;27;20071;-73
2023/09/30 05:05:20;;;;;;;42.75;11.13;;;10.00;99.90;;;;;;5096739;27;20704;-73
2023/09/30 05:07:47;;;;;;;31.45;8.77;;;9.90;99.90;;;;;;5098272;27;20050;-74
2023/09/30 05:10:15;;;;;;;38.00;11.43;;;9.90;99.90;;;;;;5091846;27;20607;-74
2023/09/30 05:12:45;;;;;;;30.85;9.50;;;9.90;99.90;;;;;;5089249;27;20435;-73
2023/09/30 05:15:15;;;;;;;36.05;10.23;;;10.40;99.90;;;;;;5089582;27;20066;-74
2023/09/30 05:17:43;;;;;;;39.38;10.55;;;9.80;99.90;;;;;;5097164;27;20043;-74
2023/09/30 05:20:10;;;;;;;37.65;10.90;;;9.80;99.90;;;;;;5097912;27;20538;-74
2023/09/30 05:22:36;;;;;;;36.15;10.93;;;9.70;99.90;;;;;;5097572;27;20038;-73
2023/09/30 05:25:02;;;;;;;34.42;10.82;;;10.20;99.90;;;;;;5096530;27;20035;-75
2023/09/30 05:27:28;;;;;;;35.42;12.35;;;9.70;99.90;;;;;;5092176;27;20118;-74
2023/09/30 05:29:55;;;;;;;47.83;12.30;;;10.10;99.90;;;;;;5095873;27;20485;-74
2023/09/30 05:32:22;;;;;;;41.38;12.32;;;9.70;99.90;;;;;;5090417;27;20295;-74
2023/09/30 05:34:48;;;;;;;34.42;11.40;;;9.70;99.90;;;;;;5097228;27;20153;-74
2023/09/30 05:37:14;;;;;;;40.15;12.75;;;9.70;99.90;;;;;;5079986;27;20043;-74
2023/09/30 05:39:40;;;;;;;45.35;12.45;;;10.20;99.90;;;;;;5095045;28;20128;-74
2023/09/30 05:42:06;;;;;;;35.47;12.80;;;9.70;99.90;;;;;;5086740;28;20093;-74
2023/09/30 05:44:32;;;;;;;35.92;12.38;;;10.10;99.90;;;;;;5071836;28;20054;-74
2023/09/30 05:46:59;;;;;;;47.20;12.50;;;9.80;99.90;;;;;;5086365;28;20062;-73
2023/09/30 05:49:25;;;;;;;56.10;14.77;;;9.70;99.90;;;;;;5092246;28;20505;-74
2023/09/30 05:51:51;;;;;;;33.30;11.48;;;10.00;99.90;;;;;;5069809;28;20143;-74
2023/09/30 05:54:17;;;;;;;41.67;13.15;;;9.80;99.90;;;;;;5084567;28;20047;-74
2023/09/30 05:56:43;;;;;;;36.80;12.68;;;9.80;99.90;;;;;;5089518;28;20185;-74
2023/09/30 05:59:09;;;;;;;47.08;13.60;;;9.80;99.90;;;;;;5085501;28;20048;-74
2023/09/30 06:01:35;;;;;;;36.53;11.95;;;9.80;99.90;;;;;;5083197;28;20102;-74
2023/09/30 06:04:02;;;;;;;27.00;11.30;;;9.90;99.90;;;;;;5085944;28;20067;-74
2023/09/30 06:06:31;;;;;;;38.88;13.48;;;9.90;99.90;;;;;;5087913;28;20044;-74
2023/09/30 06:09:00;;;;;;;43.10;14.07;;;9.90;99.90;;;;;;5089839;28;20594;-74
2023/09/30 06:11:28;;;;;;;50.25;14.25;;;10.10;99.90;;;;;;5085950;28;20048;-74
2023/09/30 06:14:01;;;;;;;46.85;15.45;;;10.10;99.90;;;;;;5083882;28;20179;-74
2023/09/30 06:16:27;;;;;;;48.78;13.90;;;10.40;99.90;;;;;;5092369;28;20044;-74
2023/09/30 06:18:53;;;;;;;49.60;14.63;;;9.90;99.90;;;;;;5088119;28;20055;-74
2023/09/30 06:21:20;;;;;;;39.78;12.63;;;9.90;99.90;;;;;;5088482;28;20138;-74
2023/09/30 06:23:48;;;;;;;45.88;13.02;;;9.90;99.90;;;;;;5091015;28;20367;-74
2023/09/30 06:26:16;;;;;;;45.95;14.00;;;9.90;99.90;;;;;;5059533;28;20050;-74
2023/09/30 06:28:42;;;;;;;43.90;15.25;;;10.00;99.90;;;;;;5089518;28;20043;-74
2023/09/30 06:31:09;;;;;;;57.22;16.33;;;10.10;99.90;;;;;;5074525;28;20051;-74
2023/09/30 06:33:35;;;;;;;44.83;15.73;;;10.30;99.90;;;;;;5088044;28;20055;-75
2023/09/30 06:36:02;;;;;;;52.35;14.43;;;11.30;99.90;;;;;;5084598;28;20056;-74
2023/09/30 06:38:28;;;;;;;57.90;16.02;;;10.40;99.90;;;;;;5085075;28;20371;-74
2023/09/30 06:40:53;;;;;;;44.15;15.23;;;10.20;99.90;;;;;;5091414;28;20062;-76
2023/09/30 06:43:19;;;;;;;33.70;13.73;;;10.40;99.90;;;;;;5061531;28;20139;-75
2023/09/30 06:45:46;;;;;;;41.30;14.32;;;10.50;99.90;;;;;;5088674;28;20406;-75
2023/09/30 06:48:12;;;;;;;42.72;15.90;;;10.50;99.90;;;;;;5093845;28;20083;-75
2023/09/30 06:50:49;;;;;;;36.72;14.80;;;10.70;99.90;;;;;;5088654;28;20131;-75
2023/09/30 06:53:19;;;;;;;38.30;16.50;;;10.70;99.90;;;;;;5087520;28;20067;-75
2023/09/30 06:56:04;;;;;;;41.80;16.33;;;10.90;99.90;;;;;;5087889;28;20043;-75
2023/09/30 06:58:30;;;;;;;38.83;15.07;;;11.00;99.90;;;;;;5082997;28;20632;-75
2023/09/30 07:00:55;;;;;;;45.97;16.83;;;11.40;99.90;;;;;;5087036;28;20772;-75
2023/09/30 07:03:21;;;;;;;36.50;18.42;;;11.40;99.90;;;;;;5071099;28;20482;-75
2023/09/30 07:05:49;;;;;;;42.70;16.70;;;11.70;99.90;;;;;;5060260;28;20047;-75
2023/09/30 07:08:16;;;;;;;55.78;18.45;;;11.70;99.90;;;;;;5091757;28;20055;-75
2023/09/30 07:10:43;;;;;;;37.05;15.82;;;12.00;99.90;;;;;;5089169;28;20141;-76
2023/09/30 07:13:09;;;;;;;32.83;14.85;;;11.90;99.90;;;;;;5088117;28;20212;-76
2023/09/30 07:15:35;;;;;;;33.08;14.90;;;12.10;99.90;;;;;;5090717;28;20549;-75
2023/09/30 07:18:01;;;;;;;28.75;14.30;;;12.20;99.90;;;;;;5091326;28;20048;-76
2023/09/30 07:20:27;;;;;;;34.92;14.25;;;12.40;99.90;;;;;;5070624;28;20047;-76
2023/09/30 07:22:53;;;;;;;31.35;14.27;;;12.50;99.90;;;;;;5090819;28;20051;-77
2023/09/30 07:25:19;;;;;;;28.17;13.60;;;12.70;99.90;;;;;;5090882;28;20051;-75
2023/09/30 07:27:45;;;;;;;36.20;14.55;;;12.70;99.90;;;;;;5077465;28;20044;-75
2023/09/30 07:30:14;;;;;;;25.45;12.05;;;12.80;99.90;;;;;;5070664;28;20123;-76
2023/09/30 07:32:42;;;;;;;35.65;12.85;;;12.90;99.90;;;;;;5060940;28;20059;-76
2023/09/30 07:35:08;;;;;;;24.77;12.93;;;13.10;99.90;;;;;;5085845;28;20161;-75
2023/09/30 07:37:33;;;;;;;27.60;11.65;;;13.20;99.90;;;;;;5087805;28;20055;-76
2023/09/30 07:40:00;;;;;;;21.00;11.15;;;13.30;99.90;;;;;;5086536;28;20238;-77
2023/09/30 07:42:25;;;;;;;21.77;10.70;;;13.40;99.90;;;;;;5092378;28;20091;-75
2023/09/30 07:44:51;;;;;;;23.27;9.43;;;13.60;99.90;;;;;;5090624;28;20047;-76
2023/09/30 07:47:17;;;;;;;24.45;10.95;;;13.90;99.90;;;;;;5096507;28;20083;-74
2023/09/30 07:49:43;;;;;;;19.05;10.13;;;13.80;99.90;;;;;;5094538;28;20093;-74
2023/09/30 07:52:09;;;;;;;18.48;8.90;;;13.90;99.90;;;;;;5095639;28;20676;-75
2023/09/30 07:54:34;;;;;;;16.17;8.40;;;13.90;99.90;;;;;;5089708;28;20105;-76
2023/09/30 07:57:00;;;;;;;15.25;8.07;;;14.00;99.90;;;;;;5088951;28;20608;-76
2023/09/30 07:59:26;;;;;;;16.65;8.10;;;14.10;99.90;;;;;;5088799;28;20040;-74
2023/09/30 08:01:57;;;;;;;21.02;8.02;;;14.20;99.90;;;;;;5082976;28;20575;-75
2023/09/30 08:04:22;;;;;;;16.80;7.47;;;15.90;99.90;;;;;;5090113;28;20044;-76
2023/09/30 08:06:50;;;;;;;19.13;8.15;;;14.30;99.90;;;;;;5070988;28;20054;-73
2023/09/30 08:09:18;;;;;;;15.73;7.45;;;14.40;99.90;;;;;;5089481;28;20051;-73
2023/09/30 08:11:44;;;;;;;14.73;7.55;;;14.40;99.90;;;;;;5093861;28;20054;-73
2023/09/30 08:14:10;;;;;;;13.40;6.78;;;12.70;99.90;;;;;;5093758;28;20047;-73
2023/09/30 08:16:36;;;;;;;14.18;6.53;;;;;;;;;;5090387;28;20046;-73
2023/09/30 08:19:03;;;;;;;10.13;6.25;;;14.80;99.90;;;;;;5087309;28;20378;-75
2023/09/30 08:21:30;;;;;;;15.27;6.30;;;14.90;99.90;;;;;;5090776;28;20042;-72
2023/09/30 08:23:55;;;;;;;15.43;7.10;;;14.90;99.90;;;;;;5070445;28;20044;-74
2023/09/30 08:26:21;;;;;;;11.68;6.05;;;15.30;99.90;;;;;;5075133;28;20058;-72
2023/09/30 08:28:47;;;;;;;14.70;6.03;;;15.20;99.90;;;;;;5089777;28;20036;-72
2023/09/30 08:31:14;;;;;;;16.35;5.22;;;15.60;99.90;;;;;;5073170;28;20065;-73
2023/09/30 08:33:41;;;;;;;14.90;5.57;;;15.40;99.90;;;;;;5092313;28;20051;-73
2023/09/30 08:36:08;;;;;;;13.18;5.30;;;15.70;99.90;;;;;;5093454;28;20645;-72
2023/09/30 08:38:37;;;;;;;13.75;5.30;;;16.20;99.90;;;;;;5094005;28;20124;-73
2023/09/30 08:41:04;;;;;;;10.15;4.10;;;16.80;99.90;;;;;;5092218;28;20071;-73
2023/09/30 08:43:31;;;;;;;11.23;3.95;;;17.50;99.90;;;;;;5088632;28;20039;-72
2023/09/30 08:45:59;;;;;;;8.80;4.10;;;18.00;99.90;;;;;;5089086;28;20048;-72
2023/09/30 08:48:30;;;;;;;8.02;3.83;;;18.70;99.90;;;;;;5082920;28;20082;-72
2023/09/30 08:50:57;;;;;;;9.90;3.75;;;18.60;99.90;;;;;;5090216;28;20047;-72
2023/09/30 08:53:24;;;;;;;8.68;3.50;;;18.80;99.90;;;;;;5084393;28;20427;-73
2023/09/30 08:55:54;;;;;;;14.82;3.63;;;18.70;99.90;;;;;;5067364;28;20177;-72
2023/09/30 08:58:26;;;;;;;10.10;3.10;;;18.60;99.90;;;;;;5089762;28;20407;-72
2023/09/30 09:00:52;;;;;;;11.63;4.38;;;18.60;99.90;;;;;;5074963;28;20438;-73
2023/09/30 09:03:21;;;;;;;7.18;2.95;;;18.70;99.90;;;;;;5085582;28;20049;-72
2023/09/30 09:05:56;;;;;;;10.07;3.20;;;19.00;99.90;;;;;;5086714;28;20486;-72
2023/09/30 09:08:26;;;;;;;11.50;3.47;;;19.20;99.90;;;;;;5091549;28;20044;-72
2023/09/30 09:11:00;;;;;;;9.85;2.85;;;19.40;99.90;;;;;;5094767;28;20151;-72
2023/09/30 09:13:27;;;;;;;9.43;2.72;;;19.50;99.90;;;;;;5083741;28;20864;-74
2023/09/30 09:16:19;;;;;;;12.65;3.40;;;19.50;99.90;;;;;;5073416;28;20143;-72
2023/09/30 09:18:47;;;;;;;9.32;2.88;;;19.50;99.90;;;;;;5070704;28;20137;-72
2023/09/30 09:21:22;;;;;;;9.02;2.63;;;19.60;99.90;;;;;;5071569;28;20056;-72
2023/09/30 09:23:49;;;;;;;7.30;2.35;;;19.80;99.90;;;;;;5091104;28;20127;-71
2023/09/30 09:26:29;;;;;;;9.27;2.67;;;20.10;99.90;;;;;;5085980;28;20074;-71
2023/09/30 09:29:04;;;;;;;7.45;2.50;;;20.80;99.90;;;;;;5089028;28;20048;-71
2023/09/30 09:31:35;;;;;;;10.43;2.17;;;20.70;99.90;;;;;;5089200;28;20386;-71
2023/09/30 09:34:12;;;;;;;9.23;2.50;;;20.80;99.90;;;;;;5085911;28;20083;-72
2023/09/30 09:36:47;;;;;;;7.28;1.60;;;20.90;99.90;;;;;;5086442;28;20058;-71
2023/09/30 09:39:13;;;;;;;7.53;1.83;;;20.80;99.90;;;;;;5089847;28;20491;-71
2023/09/30 09:41:52;;;;;;;6.07;1.35;;;20.60;99.90;;;;;;5074959;28;20597;-70
2023/09/30 09:44:22;;;;;;;9.73;2.38;;;20.60;99.90;;;;;;5075315;28;20683;-71
2023/09/30 09:46:50;;;;;;;8.23;1.65;;;20.70;99.90;;;;;;5073880;28;20565;-70
2023/09/30 09:49:20;;;;;;;6.65;1.40;;;20.20;99.90;;;;;;5045678;28;20450;-70
2023/09/30 09:51:47;;;;;;;10.95;2.13;;;20.00;99.90;;;;;;5057420;28;20048;-71
2023/09/30 09:54:14;;;;;;;5.90;1.10;;;20.20;99.90;;;;;;5074181;28;20078;-71
2023/09/30 09:56:40;;;;;;;5.47;1.45;;;19.90;99.90;;;;;;5074175;28;20086;-70
2023/09/30 09:59:06;;;;;;;10.25;2.00;;;;;;;;;;5073791;28;20458;-70
2023/09/30 10:01:35;;;;;;;6.93;1.85;;;19.90;99.90;;;;;;5073492;28;20044;-70
2023/09/30 10:04:02;;;;;;;9.98;2.38;;;20.10;99.90;;;;;;5075210;28;20056;-70
2023/09/30 10:06:28;;;;;;;8.35;1.20;;;19.90;99.90;;;;;;5075299;28;20048;-70
2023/09/30 10:08:55;;;;;;;11.05;1.73;;;20.20;99.90;;;;;;5074999;28;20042;-70
2023/09/30 10:11:22;;;;;;;6.93;0.90;;;20.80;99.90;;;;;;5074502;28;20044;-70
2023/09/30 10:14:03;;;;;;;8.57;1.20;;;20.50;99.90;;;;;;5074636;28;20497;-71
2023/09/30 10:16:35;;;;;;;5.40;0.88;;;20.50;99.90;;;;;;5070503;28;20051;-70
2023/09/30 10:19:13;;;;;;;;;;;20.70;99.90;;;;;;5075374;28;20914;-70
2023/09/30 10:22:00;;;;;;;4.28;0.60;;;20.70;99.90;;;;;;5057822;28;19920;-70
2023/09/30 10:24:27;;;;;;;7.55;1.05;;;18.00;99.90;;;;;;5067619;28;20156;-70
2023/09/30 10:27:24;;;;;;;9.85;1.15;;;20.90;99.90;;;;;;5073817;28;20102;-70
2023/09/30 10:30:10;;;;;;;7.90;1.13;;;20.80;99.90;;;;;;5071419;28;20043;-70
2023/09/30 10:32:51;;;;;;;8.10;1.08;;;20.50;99.90;;;;;;5072466;28;20114;-69
2023/09/30 10:35:21;;;;;;;7.70;1.02;;;20.30;99.90;;;;;;5073021;28;20390;-69
2023/09/30 10:37:48;;;;;;;6.40;0.82;;;20.10;99.90;;;;;;5073458;28;20063;-70
2023/09/30 10:40:32;;;;;;;6.72;0.85;;;19.80;99.90;;;;;;5080179;28;20063;-69
2023/09/30 10:42:58;;;;;;;9.40;2.88;;;;;;;;;;5089263;28;20047;-69
2023/09/30 10:45:46;;;;;;;7.50;1.27;;;20.00;99.90;;;;;;5081534;28;20129;-71
2023/09/30 10:48:37;;;;;;;6.70;1.25;;;20.00;99.90;;;;;;5090120;28;20040;-71
2023/09/30 10:51:12;;;;;;;5.72;0.75;;;17.90;99.90;;;;;;5072150;28;20651;-70
2023/09/30 10:53:59;;;;;;;7.93;1.52;;;19.60;99.90;;;;;;5089881;28;20474;-70
2023/09/30 10:56:34;;;;;;;9.23;1.50;;;19.70;99.90;;;;;;5092496;28;20051;-70
2023/09/30 10:59:02;;;;;;;6.35;1.40;;;;;;;;;;5095917;28;20043;-70
2023/09/30 11:01:36;;;;;;;5.97;0.90;;;19.20;99.90;;;;;;5098228;28;20044;-70
2023/09/30 11:04:05;;;;;;;12.93;1.50;;;19.00;99.90;;;;;;5097881;28;20054;-70
2023/09/30 11:06:31;;;;;;;7.95;1.75;;;;;;;;;;5094937;28;20047;-70
2023/09/30 11:09:02;;;;;;;8.13;1.20;;;18.80;99.90;;;;;;5066805;28;20375;-73
2023/09/30 11:11:43;;;;;;;9.50;1.70;;;18.70;99.90;;;;;;5089630;28;20192;-71
2023/09/30 11:14:31;;;;;;;9.27;0.93;;;18.60;99.90;;;;;;5090457;28;20044;-69
2023/09/30 11:17:02;;;;;;;8.77;1.45;;;18.50;99.90;;;;;;5088609;28;20059;-70
2023/09/30 11:19:36;;;;;;;8.52;1.88;;;18.30;99.90;;;;;;5071702;28;20040;-71
2023/09/30 11:22:03;;;;;;;7.32;1.13;;;;;;;;;;5091655;28;20772;-70
2023/09/30 11:24:29;;;;;;;5.45;0.85;;;;;;;;;;5097343;28;20047;-71
2023/09/30 11:26:56;;;;;;;9.70;1.42;;;;;;;;;;5067383;28;20135;-71
2023/09/30 11:29:22;;;;;;;7.57;1.42;;;18.20;99.90;;;;;;5093888;28;20687;-69
2023/09/30 11:31:50;;;;;;;9.73;1.30;;;18.20;99.90;;;;;;5093062;28;20039;-70
2023/09/30 11:34:17;;;;;;;9.43;0.95;;;;;;;;;;5092030;28;20050;-70
2023/09/30 11:36:50;;;;;;;8.00;1.20;;;18.10;99.90;;;;;;5066946;28;20050;-70
2023/09/30 11:39:27;;;;;;;10.20;1.23;;;18.00;99.90;;;;;;5094879;28;20063;-70
2023/09/30 11:41:55;;;;;;;11.13;1.20;;;;;;;;;;5076352;28;20101;-71
2023/09/30 11:44:21;;;;;;;6.38;1.50;;;;;;;;;;5096240;28;20056;-69
2023/09/30 11:46:59;;;;;;;8.50;1.38;;;17.80;99.90;;;;;;5084911;28;20101;-71
2023/09/30 11:49:39;;;;;;;8.65;1.35;;;17.80;99.90;;;;;;5082395;28;20044;-70
2023/09/30 11:52:09;;;;;;;8.82;1.38;;;17.90;99.90;;;;;;5088874;28;20035;-70
2023/09/30 11:54:41;;;;;;;6.28;2.03;;;;;;;;;;5074265;28;20040;-70
2023/09/30 11:57:10;;;;;;;9.27;1.67;;;17.90;99.90;;;;;;5086762;28;20043;-70
2023/09/30 11:59:41;;;;;;;7.20;1.20;;;17.90;99.90;;;;;;5082932;28;20040;-71
2023/09/30 12:02:08;;;;;;;7.45;1.25;;;17.80;99.90;;;;;;5085847;28;20044;-70
2023/09/30 12:04:35;;;;;;;6.90;1.02;;;;;;;;;;5080929;28;20043;-69
2023/09/30 12:07:01;;;;;;;9.68;1.50;;;;;;;;;;5092660;28;20048;-70
2023/09/30 12:09:28;;;;;;;5.80;1.35;;;;;;;;;;5086324;28;20040;-70
2023/09/30 12:11:55;;;;;;;5.28;1.10;;;18.40;99.90;;;;;;5076964;28;20135;-70
2023/09/30 12:14:21;;;;;;;8.13;1.35;;;;;;;;;;5094131;28;20039;-70
2023/09/30 12:16:49;;;;;;;7.07;1.20;;;;;;;;;;5092490;28;20071;-71
2023/09/30 12:19:15;;;;;;;9.75;2.25;;;;;;;;;;5091232;28;20062;-68
2023/09/30 12:21:42;;;;;;;5.05;1.10;;;19.00;99.90;;;;;;5056667;28;20048;-71
2023/09/30 12:24:15;;;;;;;6.82;1.23;;;;;;;;;;5088659;28;20058;-70
2023/09/30 12:26:41;;;;;;;10.48;1.10;;;;;;;;;;5089248;28;20078;-70
2023/09/30 12:29:09;;;;;;;8.13;1.88;;;;;;;;;;5094894;28;20097;-71
2023/09/30 12:31:36;;;;;;;9.73;2.05;;;;;;;;;;5090397;28;20541;-70
2023/09/30 12:34:02;;;;;;;6.35;1.02;;;;;;;;;;5086355;28;20048;-70
2023/09/30 12:36:28;;;;;;;7.70;1.23;;;;;;;;;;5084387;28;20561;-70
2023/09/30 12:38:54;;;;;;;4.95;0.88;;;;;;;;;;5073668;27;20047;-71
2023/09/30 12:41:21;;;;;;;8.50;1.35;;;;;;;;;;5081994;27;20486;-71
2023/09/30 12:43:47;;;;;;;7.82;1.27;;;;;;;;;;5074294;28;20047;-71
2023/09/30 12:46:13;;;;;;;7.63;0.85;;;;;;;;;;5086306;27;20092;-70
2023/09/30 12:48:40;;;;;;;6.85;1.10;;;19.20;99.90;;;;;;5075505;28;20134;-71
2023/09/30 12:51:06;;;;;;;7.32;1.55;;;;;;;;;;5092712;27;20151;-70
2023/09/30 12:53:35;;;;;;;5.15;1.08;;;18.90;99.90;;;;;;5089519;27;20032;-71
2023/09/30 12:56:02;;;;;;;7.70;1.48;;;;;;;;;;5091293;27;20058;-73
2023/09/30 12:58:28;;;;;;;5.50;1.02;;;;;;;;;;5096294;28;20071;-71
2023/09/30 13:00:56;;;;;;;5.90;1.25;;;18.90;99.90;;;;;;5079052;27;20142;-73
2023/09/30 13:03:22;;;;;;;6.68;1.17;;;;;;;;;;5092377;27;20046;-71
2023/09/30 13:05:48;;;;;;;8.80;1.27;;;;;;;;;;5097573;27;20047;-73
2023/09/30 13:08:15;;;;;;;9.30;1.38;;;;;;;;;;5089504;27;20096;-73
2023/09/30 13:10:41;;;;;;;6.82;1.10;;;;;;;;;;5084969;27;20452;-71
2023/09/30 13:13:07;;;;;;;5.95;0.90;;;;;;;;;;5087876;27;20073;-71
2023/09/30 13:15:33;;;;;;;5.43;0.88;;;;;;;;;;5088099;27;20047;-73
2023/09/30 13:17:59;;;;;;;7.28;1.20;;;;;;;;;;5094283;27;20425;-71
2023/09/30 13:20:25;;;;;;;8.43;1.05;;;;;;;;;;5094989;27;20050;-72
2023/09/30 13:22:51;;;;;;;6.18;1.20;;;;;;;;;;5087782;27;20051;-71
2023/09/30 13:25:18;;;;;;;9.90;1.35;;;;;;;;;;5071095;27;20323;-73
2023/09/30 13:27:44;;;;;;;6.72;0.75;;;;;;;;;;5089843;28;20623;-72
2023/09/30 13:30:10;;;;;;;7.10;1.45;;;19.40;99.90;;;;;;5094642;27;20039;-72
2023/09/30 13:32:36;;;;;;;5.55;1.20;;;;;;;;;;5085274;27;20047;-73
2023/09/30 13:35:06;;;;;;;6.82;1.30;;;19.40;99.90;;;;;;5072151;27;20050;-73
2023/09/30 13:37:36;;;;;;;8.02;1.15;;;19.30;99.90;;;;;;5093836;28;20062;-73
2023/09/30 13:40:08;;;;;;;8.25;2.22;;;19.30;99.90;;;;;;5092446;27;20182;-72
2023/09/30 13:42:34;;;;;;;8.07;0.98;;;;;;;;;;5084480;27;20060;-75
2023/09/30 13:45:01;;;;;;;7.10;1.17;;;;;;;;;;5077440;27;20058;-73
2023/09/30 13:47:27;;;;;;;6.28;0.80;;;;;;;;;;5087353;27;20258;-72
2023/09/30 13:49:54;;;;;;;6.72;0.82;;;;;;;;;;5079836;28;20031;-74
2023/09/30 13:52:21;;;;;;;5.05;0.70;;;;;;;;;;5096952;27;20439;-74
2023/09/30 13:54:47;;;;;;;10.60;0.80;;;;;;;;;;5096972;27;20057;-75
2023/09/30 13:57:14;;;;;;;8.90;2.00;;;;;;;;;;5063726;27;20040;-72
2023/09/30 13:59:41;;;;;;;8.50;1.75;;;;;;;;;;5069391;27;20046;-71
2023/09/30 14:02:07;;;;;;;8.85;1.10;;;;;;;;;;5097138;27;20043;-72
2023/09/30 14:04:36;;;;;;;5.43;1.30;;;;;;;;;;5080959;27;20046;-72
2023/09/30 14:07:03;;;;;;;7.32;0.75;;;;;;;;;;5096751;27;20043;-74
2023/09/30 14:09:29;;;;;;;7.88;1.00;;;;;;;;;;5076425;27;20051;-73